Stations météo

réclame
Mon MeteoGroup
Isola Di Salina, Italie (16415): Température de l'air & dewpoint: 20.09.2018 05:00:00 - 26.09.2018 05:00:00 (CEST)Isola Di Salina, Italie (16415): Vitesse du vent: 20.09.2018 05:00:00 - 26.09.2018 05:00:00 (CEST)Isola Di Salina, Italie (16415): Direction du vent: 20.09.2018 05:00:00 - 26.09.2018 05:00:00 (CEST)Isola Di Salina, Italie (16415): reduced air pressure: 20.09.2018 05:00:00 - 26.09.2018 05:00:00 (CEST)Isola Di Salina, Italie (16415): Quantités de précipitations: 20.09.2018 05:00:00 - 26.09.2018 05:00:00 (CEST)
Date & Time tt [°C] td [°C] ff [km/h] ff [knt] dd ppp [hPa] rr [mm]
26.09.2018 05:00:00 - - - - - - -
26.09.2018 04:00:00 20,2 13,6 11 6 S 1023,0 -
26.09.2018 03:00:00 20,5 13,4 13 7 NE 1023,0 -
26.09.2018 02:00:00 20,9 13,7 16 9 SE 1022,8 0,0
26.09.2018 01:00:00 21,5 14,6 16 9 N 1022,4 -
26.09.2018 00:00:00 21,6 15,1 15 8 N 1022,1 -
25.09.2018 23:00:00 22,1 16,5 13 7 SE 1021,8 -
25.09.2018 22:00:00 22,4 16,6 9 5 NNE 1021,6 -
25.09.2018 21:00:00 22,9 16,4 13 7 E 1021,1 -
25.09.2018 20:00:00 22,8 17,0 16 9 E 1020,4 -
25.09.2018 19:00:00 22,7 17,1 13 7 NE 1020,1 -
25.09.2018 18:00:00 23,3 17,4 11 6 WNW 1019,7 -
25.09.2018 17:00:00 24,0 18,1 11 6 NNE 1019,6 -
25.09.2018 16:00:00 25,1 18,0 13 7 NE 1019,5 -
25.09.2018 15:00:00 25,0 17,1 9 5 ENE 1019,8 -
25.09.2018 14:00:00 26,2 19,8 11 6 E 1020,0 0,0
25.09.2018 13:00:00 25,2 19,3 21 11 ENE 1020,2 -
25.09.2018 12:00:00 24,3 21,2 16 9 E 1020,0 -
25.09.2018 11:00:00 23,9 22,1 18 10 E 1019,5 -
25.09.2018 10:00:00 24,0 22,7 24 13 E 1019,0 -
25.09.2018 09:00:00 22,7 22,3 13 7 ESE 1018,6 -
25.09.2018 08:00:00 22,3 22,1 11 6 S 1018,0 -
25.09.2018 07:00:00 22,5 22,1 9 5 SSE 1017,8 -
25.09.2018 06:00:00 22,3 21,9 0 0 N 1017,6 -
25.09.2018 05:00:00 22,1 21,5 0 0 N 1017,2 -
25.09.2018 04:00:00 21,9 21,3 0 0 N 1017,4 -
25.09.2018 03:00:00 21,7 21,0 0 0 N 1017,6 -
25.09.2018 02:00:00 21,9 21,2 0 0 N 1017,5 0,0
25.09.2018 01:00:00 22,2 21,3 0 0 N 1017,3 -
25.09.2018 00:00:00 22,4 21,5 0 0 N 1017,3 -
24.09.2018 23:00:00 22,7 21,6 0 0 N 1017,1 -
24.09.2018 22:00:00 22,8 21,7 4 2 WSW 1016,7 -
24.09.2018 21:00:00 23,2 21,9 4 2 W 1016,3 -
24.09.2018 20:00:00 23,4 22,0 8 4 W 1015,6 0,0
24.09.2018 19:00:00 24,0 22,6 11 6 WNW 1015,4 -
24.09.2018 18:00:00 24,2 22,4 11 6 NW 1015,1 -
24.09.2018 17:00:00 25,2 21,8 13 7 NW 1015,2 -
24.09.2018 16:00:00 25,7 21,7 15 8 NW 1015,1 -
24.09.2018 15:00:00 25,6 22,6 15 8 NW 1015,3 -
24.09.2018 14:00:00 25,1 23,5 15 8 NW 1016,1 0,0
24.09.2018 13:00:00 24,4 23,0 16 9 NW 1016,3 -
24.09.2018 12:00:00 25,6 24,0 15 8 NNW 1016,4 -
24.09.2018 11:00:00 26,5 24,9 0 0 N 1016,7 -
24.09.2018 10:00:00 25,4 24,0 0 0 N 1016,5 -
24.09.2018 09:00:00 24,7 24,0 0 0 N 1016,3 -
24.09.2018 08:00:00 22,3 21,6 0 0 N 1016,5 0,0
24.09.2018 07:00:00 21,5 20,8 0 0 N 1016,5 -
24.09.2018 06:00:00 21,4 20,5 5 3 WNW 1016,7 -
24.09.2018 05:00:00 21,4 20,7 4 2 SSW 1016,8 -
24.09.2018 04:00:00 21,5 20,8 0 0 N 1017,6 -
24.09.2018 03:00:00 21,7 21,0 0 0 N 1018,0 -
24.09.2018 02:00:00 21,6 20,7 0 0 N 1018,5 0,0
24.09.2018 01:00:00 22,1 21,2 4 2 SW 1019,0 -
24.09.2018 00:00:00 22,1 21,0 0 0 N 1019,5 -
23.09.2018 23:00:00 22,3 21,2 0 0 N 1019,7 -
23.09.2018 22:00:00 22,7 21,3 0 0 N 1019,6 -
23.09.2018 21:00:00 23,0 21,6 0 0 N 1019,8 -
23.09.2018 20:00:00 23,5 21,5 0 0 N 1019,5 0,0
23.09.2018 19:00:00 24,3 21,0 0 0 N 1019,3 -
23.09.2018 18:00:00 25,2 20,8 2 1 N 1019,5 -
23.09.2018 17:00:00 26,3 21,2 5 3 N 1019,6 -
23.09.2018 16:00:00 26,7 21,6 5 3 N 1019,8 -
23.09.2018 15:00:00 26,8 22,6 5 3 NNE 1020,2 -
23.09.2018 14:00:00 26,8 22,6 4 2 NNE 1020,6 0,0
23.09.2018 13:00:00 27,0 22,6 4 2 N 1021,2 -
23.09.2018 12:00:00 26,7 23,5 4 2 N 1021,2 -
23.09.2018 11:00:00 26,6 24,6 0 0 N 1021,0 -
23.09.2018 10:00:00 25,4 24,1 0 0 N 1020,6 -
23.09.2018 09:00:00 23,8 23,4 0 0 N 1020,2 -
23.09.2018 08:00:00 22,1 21,5 0 0 N 1019,6 0,0
23.09.2018 07:00:00 21,3 20,6 0 0 N 1019,2 -
23.09.2018 06:00:00 21,4 20,7 2 1 SSW 1019,0 -
23.09.2018 05:00:00 21,5 20,8 4 2 SSW 1019,2 -
23.09.2018 04:00:00 21,6 20,7 2 1 SSW 1019,0 -
23.09.2018 03:00:00 22,0 21,1 0 0 N 1019,3 -
23.09.2018 02:00:00 22,1 21,0 0 0 N 1019,5 0,0
23.09.2018 01:00:00 22,4 21,3 4 2 SSW 1019,4 -
23.09.2018 00:00:00 22,3 21,1 0 0 N 1019,4 -
22.09.2018 23:00:00 22,4 21,2 4 2 S 1019,2 -
22.09.2018 22:00:00 22,7 21,3 5 3 S 1019,0 -
22.09.2018 21:00:00 23,0 21,4 4 2 S 1018,7 -
22.09.2018 20:00:00 23,5 21,5 5 3 S 1018,1 0,0
22.09.2018 19:00:00 24,1 21,4 4 2 E 1017,7 -
22.09.2018 18:00:00 25,1 21,5 4 2 ESE 1017,1 -
22.09.2018 17:00:00 25,8 21,8 4 2 E 1016,9 -
22.09.2018 16:00:00 26,3 22,3 5 3 ESE 1017,0 -
22.09.2018 15:00:00 26,0 22,4 8 4 ESE 1017,2 -
22.09.2018 14:00:00 26,2 22,8 9 5 ESE 1017,3 0,0
22.09.2018 13:00:00 27,4 23,4 5 3 NE 1017,2 -
22.09.2018 12:00:00 26,9 24,3 5 3 NNE 1017,2 -
22.09.2018 11:00:00 27,5 25,3 4 2 ESE 1017,0 -
22.09.2018 10:00:00 26,7 25,1 5 3 SE 1016,7 -
22.09.2018 09:00:00 25,4 24,3 0 0 N 1016,1 -
22.09.2018 08:00:00 23,1 22,0 0 0 N 1015,8 0,0
22.09.2018 07:00:00 22,1 20,9 8 4 W 1015,3 -
22.09.2018 06:00:00 22,1 20,9 5 3 WNW 1015,3 -
22.09.2018 05:00:00 22,2 20,8 0 0 N 1015,1 -
22.09.2018 04:00:00 22,4 20,8 4 2 S 1015,0 -
22.09.2018 03:00:00 22,6 20,6 4 2 S 1015,2 -
22.09.2018 02:00:00 23,0 20,1 4 2 S 1015,5 0,0
22.09.2018 01:00:00 22,9 18,6 4 2 S 1015,6 -
22.09.2018 00:00:00 23,1 18,4 4 2 ENE 1015,7 -
21.09.2018 23:00:00 23,3 18,8 5 3 SSW 1015,2 -
21.09.2018 22:00:00 23,4 17,5 5 3 SSE 1015,1 -
21.09.2018 21:00:00 23,3 17,4 5 3 S 1015,0 -
21.09.2018 20:00:00 23,7 18,5 4 2 S 1014,6 0,0
21.09.2018 19:00:00 24,4 18,7 4 2 S 1014,5 -
21.09.2018 18:00:00 25,4 19,2 5 3 SSE 1014,3 -
21.09.2018 17:00:00 26,3 20,1 5 3 SE 1014,1 -
21.09.2018 16:00:00 26,6 19,9 5 3 ESE 1014,3 -
21.09.2018 15:00:00 26,7 20,9 5 3 ESE 1014,6 -
21.09.2018 14:00:00 26,9 20,7 4 2 NNW 1014,9 0,0
21.09.2018 13:00:00 27,1 21,6 5 3 ESE 1015,2 -
21.09.2018 12:00:00 27,1 22,2 11 6 SE 1015,1 -
21.09.2018 11:00:00 26,2 21,6 16 9 SE 1015,0 -
21.09.2018 10:00:00 25,9 23,1 13 7 SE 1014,8 -
21.09.2018 09:00:00 24,7 22,9 13 7 SE 1014,6 -
21.09.2018 08:00:00 23,0 21,2 8 4 S 1014,2 0,0
21.09.2018 07:00:00 22,2 20,4 9 5 S 1014,0 -
21.09.2018 06:00:00 22,1 20,5 5 3 S 1014,2 -
21.09.2018 05:00:00 22,3 20,5 9 5 SSW 1014,3 -
21.09.2018 04:00:00 22,3 19,2 5 3 S 1014,4 -
21.09.2018 03:00:00 22,3 20,5 9 5 S 1014,8 -
21.09.2018 02:00:00 21,9 20,1 4 2 S 1015,4 0,0
21.09.2018 01:00:00 22,6 20,8 8 4 S 1015,4 -
21.09.2018 00:00:00 22,9 20,7 5 3 SSW 1015,6 -
20.09.2018 23:00:00 23,2 21,4 8 4 S 1015,9 -
20.09.2018 22:00:00 23,3 19,6 9 5 S 1015,7 -
20.09.2018 21:00:00 23,0 19,1 5 3 S 1015,9 -
20.09.2018 20:00:00 23,3 21,5 0 0 N 1015,6 0,0
20.09.2018 19:00:00 23,7 20,6 5 3 W 1015,4 -
20.09.2018 18:00:00 24,6 22,8 18 10 S 1015,2 -
20.09.2018 17:00:00 25,2 21,6 9 5 S 1015,2 -
20.09.2018 16:00:00 26,3 21,5 13 7 SE 1015,6 -
20.09.2018 15:00:00 27,2 24,0 8 4 SE 1016,0 -
20.09.2018 14:00:00 26,2 22,8 8 4 SE 1016,3 0,0
20.09.2018 13:00:00 27,0 22,6 4 2 NE 1016,7 -
20.09.2018 12:00:00 27,4 24,2 8 4 SE 1017,0 -
20.09.2018 11:00:00 26,7 23,7 9 5 SSE 1017,0 -
20.09.2018 10:00:00 25,9 24,3 4 2 ENE 1017,3 -
20.09.2018 09:00:00 24,7 23,6 4 2 SE 1017,0 -
20.09.2018 08:00:00 23,2 21,9 8 4 S 1016,6 0,0
20.09.2018 07:00:00 23,0 21,8 8 4 S 1016,7 -
20.09.2018 06:00:00 22,7 21,1 4 2 S 1016,7 -
20.09.2018 05:00:00 22,6 21,2 8 4 S 1016,5 -

tt = Température de l'air
td = dewpoint
ff = Vitesse du vent
dd = Direction du vent
ppp = reduced air pressure
rr = Quantités de précipitations

stations d'obs. à proximité